createdAt,value
2022-10-20T00:01:06.195Z,35.53
2022-10-20T00:03:32.916Z,35.50
2022-10-20T00:06:19.324Z,48.40
2022-10-20T00:08:46.772Z,42.30
2022-10-20T00:11:15.914Z,41.93
2022-10-20T00:13:43.888Z,41.90
2022-10-20T00:16:10.652Z,43.90
2022-10-20T00:18:37.399Z,48.57
2022-10-20T00:21:08.640Z,56.33
2022-10-20T00:23:35.830Z,51.30
2022-10-20T00:26:07.156Z,57.93
2022-10-20T00:28:34.172Z,46.50
2022-10-20T00:31:01.593Z,48.17
2022-10-20T00:33:28.186Z,50.37
2022-10-20T00:35:54.658Z,40.80
2022-10-20T00:38:21.242Z,41.43
2022-10-20T00:40:47.716Z,50.80
2022-10-20T00:43:17.549Z,39.33
2022-10-20T00:45:50.282Z,38.73
2022-10-20T00:48:19.434Z,32.57
2022-10-20T00:50:49.553Z,32.15
2022-10-20T00:53:18.626Z,32.30
2022-10-20T00:55:48.050Z,30.00
2022-10-20T00:58:14.669Z,29.52
2022-10-20T01:00:42.968Z,27.33
2022-10-20T01:03:17.801Z,28.33
2022-10-20T01:05:44.283Z,30.67
2022-10-20T01:08:10.762Z,28.73
2022-10-20T01:10:44.677Z,33.03
2022-10-20T01:13:21.870Z,31.93
2022-10-20T01:16:01.430Z,36.43
2022-10-20T01:18:41.040Z,33.85
2022-10-20T01:21:21.624Z,38.90
2022-10-20T01:24:14.840Z,36.43
2022-10-20T01:27:13.965Z,33.97
2022-10-20T01:30:03.856Z,36.03
2022-10-20T01:32:49.078Z,39.58
2022-10-20T01:35:35.741Z,39.10
2022-10-20T01:38:08.644Z,36.43
2022-10-20T01:41:15.336Z,27.67
2022-10-20T01:43:43.672Z,32.43
2022-10-20T01:46:10.989Z,29.63
2022-10-20T01:48:38.344Z,35.37
2022-10-20T01:51:04.948Z,34.90
2022-10-20T01:53:32.145Z,39.57
2022-10-20T01:55:59.822Z,42.37
2022-10-20T01:58:29.376Z,41.73
2022-10-20T02:01:20.490Z,42.92
2022-10-20T02:03:53.364Z,36.60
2022-10-20T02:06:50.544Z,45.10
2022-10-20T02:09:20.291Z,41.57
2022-10-20T02:11:53.024Z,48.63
2022-10-20T02:14:20.579Z,49.17
2022-10-20T02:16:53.173Z,50.70
2022-10-20T02:19:22.400Z,53.10
2022-10-20T02:21:50.953Z,48.03
2022-10-20T02:24:17.693Z,47.37
2022-10-20T02:26:45.405Z,58.43
2022-10-20T02:29:16.419Z,48.70
2022-10-20T02:31:44.398Z,53.03
2022-10-20T02:34:11.559Z,58.43
2022-10-20T02:36:40.138Z,44.23
2022-10-20T02:39:07.239Z,41.33
2022-10-20T02:41:33.858Z,40.53
2022-10-20T02:44:00.365Z,47.27
2022-10-20T02:46:26.823Z,43.13
2022-10-20T02:48:53.543Z,49.73
2022-10-20T02:51:20.089Z,44.20
2022-10-20T02:53:46.856Z,45.00
2022-10-20T02:56:13.320Z,54.23
2022-10-20T02:58:39.771Z,44.47
2022-10-20T03:01:06.267Z,45.30
2022-10-20T03:03:32.708Z,50.33
2022-10-20T03:06:07.162Z,46.23
2022-10-20T03:08:36.982Z,44.30
2022-10-20T03:11:03.896Z,48.00
2022-10-20T03:13:30.634Z,46.63
2022-10-20T03:15:57.150Z,46.20
2022-10-20T03:18:23.852Z,41.43
2022-10-20T03:20:53.726Z,38.17
2022-10-20T03:23:20.598Z,41.80
2022-10-20T03:25:47.764Z,42.07
2022-10-20T03:28:14.356Z,43.93
2022-10-20T03:30:41.311Z,39.70
2022-10-20T03:33:07.947Z,43.00
2022-10-20T03:35:34.886Z,41.13
2022-10-20T03:38:01.477Z,36.53
2022-10-20T03:40:28.736Z,41.23
2022-10-20T03:42:55.326Z,39.10
2022-10-20T03:45:21.907Z,44.73
2022-10-20T03:47:48.992Z,51.60
2022-10-20T03:50:15.480Z,48.77
2022-10-20T03:52:41.921Z,42.57
2022-10-20T03:55:08.999Z,44.30
2022-10-20T03:57:35.705Z,42.43
2022-10-20T04:00:07.005Z,40.73
2022-10-20T04:02:36.360Z,42.63
2022-10-20T04:05:04.203Z,46.70
2022-10-20T04:07:30.816Z,43.90
2022-10-20T04:09:57.583Z,42.57
2022-10-20T04:12:26.421Z,45.63
2022-10-20T04:15:00.627Z,46.63
2022-10-20T04:17:27.198Z,42.10
2022-10-20T04:19:53.676Z,45.30
2022-10-20T04:22:20.202Z,42.90
2022-10-20T04:24:47.939Z,43.90
2022-10-20T04:27:14.395Z,42.03
2022-10-20T04:29:40.990Z,37.37
2022-10-20T04:32:07.427Z,49.23
2022-10-20T04:34:34.065Z,44.47
2022-10-20T04:37:00.762Z,43.43
2022-10-20T04:39:27.660Z,48.17
2022-10-20T04:41:56.762Z,45.77
2022-10-20T04:44:23.323Z,49.08
2022-10-20T04:46:50.401Z,43.57
2022-10-20T04:49:16.986Z,46.20
2022-10-20T04:51:46.673Z,55.03
2022-10-20T04:54:13.259Z,53.10
2022-10-20T04:56:40.100Z,42.87
2022-10-20T04:59:09.594Z,50.53
2022-10-20T05:01:39.262Z,48.77
2022-10-20T05:04:05.801Z,48.80
2022-10-20T05:06:33.716Z,47.63
2022-10-20T05:09:03.049Z,52.17
2022-10-20T05:11:30.938Z,46.03
2022-10-20T05:13:57.492Z,58.83
2022-10-20T05:16:24.439Z,55.10
2022-10-20T05:18:50.967Z,52.17
2022-10-20T05:21:19.971Z,53.87
2022-10-20T05:23:46.731Z,60.07
2022-10-20T05:26:17.099Z,62.83
2022-10-20T05:28:46.331Z,49.53
2022-10-20T05:31:13.236Z,55.47
2022-10-20T05:33:43.324Z,66.20
2022-10-20T05:38:37.296Z,50.93
2022-10-20T05:41:12.090Z,56.60
2022-10-20T05:43:38.911Z,56.77
2022-10-20T05:46:06.383Z,55.30
2022-10-20T05:48:33.526Z,52.10
2022-10-20T05:51:18.863Z,51.77
2022-10-20T05:53:46.099Z,51.60
2022-10-20T05:56:15.052Z,46.80
2022-10-20T05:58:42.237Z,53.47
2022-10-20T06:01:13.278Z,50.73
2022-10-20T06:03:40.109Z,60.53
2022-10-20T06:06:06.641Z,53.40
2022-10-20T06:08:33.437Z,62.23
2022-10-20T06:11:05.332Z,61.33
2022-10-20T06:13:32.350Z,50.23
2022-10-20T06:16:06.990Z,59.70
2022-10-20T06:18:34.217Z,62.87
2022-10-20T06:21:05.854Z,45.93
2022-10-20T06:23:32.343Z,56.37
2022-10-20T06:26:10.952Z,50.97
2022-10-20T06:28:38.998Z,49.10
2022-10-20T06:31:40.885Z,56.67
2022-10-20T06:34:09.720Z,56.50
2022-10-20T06:36:37.423Z,54.87
2022-10-20T06:39:05.507Z,50.60
2022-10-20T06:41:34.975Z,62.20
2022-10-20T06:44:01.688Z,63.22
2022-10-20T06:46:30.125Z,55.83
2022-10-20T06:48:58.811Z,60.87
2022-10-20T06:51:25.872Z,44.63
2022-10-20T06:53:52.756Z,55.67
2022-10-20T06:56:27.750Z,56.63
2022-10-20T06:58:55.535Z,58.10
2022-10-20T07:01:24.697Z,50.93
2022-10-20T07:03:53.475Z,47.15
2022-10-20T07:06:24.846Z,53.03
2022-10-20T07:08:52.715Z,45.60
2022-10-20T07:11:21.338Z,49.57
2022-10-20T07:13:50.775Z,49.90
2022-10-20T07:16:19.588Z,48.45
2022-10-20T07:18:46.633Z,53.43
2022-10-20T07:21:15.604Z,46.50
2022-10-20T07:23:42.347Z,55.13
2022-10-20T07:26:17.506Z,44.70
2022-10-20T07:28:46.512Z,56.70
2022-10-20T07:31:18.541Z,58.05
2022-10-20T07:33:56.182Z,53.83
2022-10-20T07:36:34.871Z,45.93
2022-10-20T07:39:05.022Z,50.00
2022-10-20T07:41:31.570Z,47.72
2022-10-20T07:43:58.291Z,42.17
2022-10-20T07:46:25.765Z,50.53
2022-10-20T07:48:52.382Z,53.87
2022-10-20T07:51:21.656Z,49.67
2022-10-20T07:53:49.058Z,53.85
2022-10-20T07:56:15.716Z,50.23
2022-10-20T07:58:42.616Z,44.77
2022-10-20T08:01:10.447Z,46.73
2022-10-20T08:03:38.528Z,47.87
2022-10-20T08:06:06.167Z,49.63
2022-10-20T08:08:34.205Z,44.57
2022-10-20T08:11:01.435Z,42.00
2022-10-20T08:13:28.753Z,53.87
2022-10-20T08:15:57.430Z,45.97
2022-10-20T08:18:25.501Z,47.80
2022-10-20T08:20:54.551Z,49.30
2022-10-20T08:23:21.011Z,45.03
2022-10-20T08:25:47.490Z,45.70
2022-10-20T08:28:13.939Z,48.87
2022-10-20T08:30:40.425Z,44.73
2022-10-20T08:33:06.989Z,47.47
2022-10-20T08:35:34.051Z,44.33
2022-10-20T08:38:06.081Z,50.33
2022-10-20T08:40:34.675Z,52.20
2022-10-20T08:43:01.209Z,49.33
2022-10-20T08:45:28.190Z,44.57
2022-10-20T08:47:56.622Z,46.87
2022-10-20T08:50:24.514Z,46.90
2022-10-20T08:52:53.849Z,43.60
2022-10-20T08:55:31.638Z,39.65
2022-10-20T08:58:06.590Z,41.57
2022-10-20T09:00:36.380Z,42.73
2022-10-20T09:03:13.757Z,42.55
2022-10-20T09:05:42.096Z,53.77
2022-10-20T09:08:08.837Z,52.43
2022-10-20T09:10:38.556Z,49.60
2022-10-20T09:13:25.939Z,46.63
2022-10-20T09:16:04.873Z,50.63
2022-10-20T09:18:32.727Z,48.42
2022-10-20T09:21:05.749Z,42.93
2022-10-20T09:23:41.921Z,48.87
2022-10-20T09:26:37.424Z,43.37
2022-10-20T09:29:16.315Z,41.60
2022-10-20T09:31:54.417Z,39.07
2022-10-20T09:34:31.848Z,40.33
2022-10-20T09:37:03.743Z,34.30
2022-10-20T09:39:38.274Z,30.30
2022-10-20T09:42:11.496Z,23.27
2022-10-20T09:44:56.982Z,27.30
2022-10-20T09:47:24.558Z,24.30
2022-10-20T09:50:01.069Z,25.50
2022-10-20T09:52:30.606Z,22.70
2022-10-20T09:55:26.315Z,22.13
2022-10-20T09:57:54.287Z,22.17
2022-10-20T10:00:37.326Z,28.13
2022-10-20T10:03:08.556Z,31.87
2022-10-20T10:05:35.439Z,29.13
2022-10-20T10:08:02.228Z,25.97
2022-10-20T10:10:30.664Z,33.77
2022-10-20T10:13:00.620Z,32.27
2022-10-20T10:15:34.651Z,29.47
2022-10-20T10:18:12.170Z,25.47
2022-10-20T10:20:39.648Z,23.20
2022-10-20T10:23:29.807Z,28.43
2022-10-20T10:26:00.576Z,27.40
2022-10-20T10:28:32.846Z,27.30
2022-10-20T10:31:10.007Z,25.90
2022-10-20T10:33:36.657Z,25.80
2022-10-20T10:36:06.904Z,25.23
2022-10-20T10:38:34.336Z,22.27
2022-10-20T10:41:06.101Z,25.07
2022-10-20T10:43:37.494Z,19.40
2022-10-20T10:46:25.094Z,23.63
2022-10-20T10:48:58.008Z,22.43
2022-10-20T10:51:30.588Z,19.80
2022-10-20T10:54:11.696Z,25.23
2022-10-20T10:56:41.717Z,23.10
2022-10-20T10:59:25.793Z,21.92
2022-10-20T11:01:58.302Z,24.13
2022-10-20T11:04:49.064Z,25.83
2022-10-20T11:07:38.841Z,23.53
2022-10-20T11:10:42.715Z,27.37
2022-10-20T11:13:42.961Z,20.17
2022-10-20T11:16:34.333Z,18.63
2022-10-20T11:19:18.853Z,19.23
2022-10-20T11:22:00.524Z,15.67
2022-10-20T11:24:43.096Z,20.90
2022-10-20T11:27:19.721Z,15.80
2022-10-20T11:29:52.188Z,17.93
2022-10-20T11:32:27.153Z,21.67
2022-10-20T11:35:25.287Z,23.53
2022-10-20T11:38:12.733Z,23.63
2022-10-20T11:40:45.037Z,20.93
2022-10-20T11:43:25.956Z,26.63
2022-10-20T11:46:12.666Z,29.97
2022-10-20T11:48:47.405Z,27.10
2022-10-20T11:51:32.510Z,26.77
2022-10-20T11:54:23.888Z,26.70
2022-10-20T11:56:55.703Z,27.77
2022-10-20T11:59:46.911Z,28.43
2022-10-20T12:02:49.377Z,30.03
2022-10-20T12:05:30.985Z,24.97
2022-10-20T12:08:29.846Z,25.20
2022-10-20T12:11:34.521Z,30.63
2022-10-20T12:14:16.357Z,29.80
2022-10-20T12:16:52.218Z,33.73
2022-10-20T12:19:30.221Z,42.53
2022-10-20T12:22:26.570Z,31.30
2022-10-20T12:24:52.929Z,30.70
2022-10-20T12:27:21.687Z,38.93
2022-10-20T12:30:29.340Z,32.40
2022-10-20T12:32:58.420Z,31.83
2022-10-20T12:35:24.936Z,31.52
2022-10-20T12:37:59.390Z,28.10
2022-10-20T12:40:26.767Z,27.03
2022-10-20T12:42:54.912Z,27.93
2022-10-20T12:45:37.607Z,24.20
2022-10-20T12:48:06.454Z,23.43
2022-10-20T12:50:40.171Z,29.60
2022-10-20T12:53:13.308Z,33.97
2022-10-20T12:55:42.046Z,26.87
2022-10-20T12:58:11.903Z,24.48
2022-10-20T13:00:38.374Z,21.70
2022-10-20T13:03:33.648Z,19.27
2022-10-20T13:06:01.046Z,22.23
2022-10-20T13:08:33.688Z,24.20
2022-10-20T13:11:38.897Z,25.60
2022-10-20T13:14:17.919Z,25.07
2022-10-20T13:17:09.232Z,26.73
2022-10-20T13:19:43.398Z,28.87
2022-10-20T13:22:37.595Z,30.57
2022-10-20T13:25:06.898Z,31.63
2022-10-20T13:27:33.532Z,32.13
2022-10-20T13:30:00.181Z,29.00
2022-10-20T13:33:38.403Z,26.07
2022-10-20T13:36:05.430Z,23.60
2022-10-20T13:41:27.991Z,23.40
2022-10-20T13:44:32.021Z,19.17
2022-10-20T13:47:19.133Z,20.60
2022-10-20T13:49:59.630Z,20.07
2022-10-20T13:52:28.682Z,21.90
2022-10-20T13:54:55.640Z,21.35
2022-10-20T14:00:29.988Z,18.00
2022-10-20T14:03:04.578Z,19.60
2022-10-20T14:05:37.599Z,21.93
2022-10-20T14:08:08.832Z,22.23
2022-10-20T14:10:40.027Z,21.73
2022-10-20T14:13:14.661Z,20.77
2022-10-20T14:15:49.002Z,15.83
2022-10-20T14:18:29.685Z,19.27
2022-10-20T14:21:01.626Z,16.05
2022-10-20T14:23:37.136Z,17.70
2022-10-20T14:26:05.128Z,12.20
2022-10-20T14:28:33.375Z,27.27
2022-10-20T14:31:00.311Z,22.10
2022-10-20T14:33:29.043Z,29.10
2022-10-20T14:35:58.289Z,23.75
2022-10-20T14:38:30.474Z,24.88
2022-10-20T14:40:58.071Z,25.60
2022-10-20T14:43:35.424Z,27.50
2022-10-20T14:46:03.443Z,27.97
2022-10-20T14:48:38.727Z,22.07
2022-10-20T14:51:26.966Z,25.20
2022-10-20T14:54:15.871Z,25.57
2022-10-20T14:56:45.480Z,19.88
2022-10-20T14:59:18.360Z,20.20
2022-10-20T15:02:17.549Z,20.37
2022-10-20T15:04:45.512Z,18.85
2022-10-20T15:07:19.561Z,22.30
2022-10-20T15:09:52.006Z,21.23
2022-10-20T15:12:33.324Z,21.40
2022-10-20T15:15:06.204Z,18.13
2022-10-20T15:17:45.742Z,17.00
2022-10-20T15:20:31.042Z,15.82
2022-10-20T15:22:59.503Z,16.40
2022-10-20T15:25:27.667Z,18.37
2022-10-20T15:27:55.824Z,15.57
2022-10-20T15:30:23.952Z,20.80
2022-10-20T15:32:50.821Z,16.00
2022-10-20T15:35:19.266Z,18.30
2022-10-20T15:37:53.014Z,16.33
2022-10-20T15:40:24.056Z,16.60
2022-10-20T15:42:50.513Z,25.73
2022-10-20T15:45:20.147Z,24.87
2022-10-20T15:47:47.118Z,22.55
2022-10-20T15:50:13.790Z,24.43
2022-10-20T15:52:40.375Z,28.47
2022-10-20T15:55:24.193Z,21.80
2022-10-20T15:57:51.820Z,27.03
2022-10-20T16:00:20.159Z,24.70
2022-10-20T16:02:46.875Z,28.17
2022-10-20T16:05:13.521Z,29.40
2022-10-20T16:07:40.139Z,28.67
2022-10-20T16:10:08.160Z,32.73
2022-10-20T16:12:35.414Z,29.20
2022-10-20T16:15:02.487Z,28.40
2022-10-20T16:17:28.950Z,25.67
2022-10-20T16:19:59.157Z,26.40
2022-10-20T16:22:25.784Z,28.23
2022-10-20T16:24:52.568Z,29.20
2022-10-20T16:27:19.038Z,21.10
2022-10-20T16:29:47.642Z,24.93
2022-10-20T16:32:16.271Z,29.43
2022-10-20T16:34:42.741Z,25.50
2022-10-20T16:37:09.777Z,33.60
2022-10-20T16:39:36.218Z,22.93
2022-10-20T16:42:02.684Z,20.23
2022-10-20T16:44:29.141Z,20.57
2022-10-20T16:46:55.569Z,18.37
2022-10-20T16:49:23.100Z,20.00
2022-10-20T16:51:50.799Z,23.47
2022-10-20T16:54:17.503Z,19.67
2022-10-20T16:56:43.980Z,14.13
2022-10-20T16:59:10.457Z,14.40
2022-10-20T17:01:37.161Z,20.83
2022-10-20T17:04:03.893Z,16.37
2022-10-20T17:06:30.348Z,19.13
2022-10-20T17:08:59.150Z,14.43
2022-10-20T17:11:28.386Z,16.47
2022-10-20T17:13:55.328Z,17.15
2022-10-20T17:16:33.040Z,21.60
2022-10-20T17:19:00.946Z,12.73
2022-10-20T17:21:28.737Z,13.73
2022-10-20T17:24:05.604Z,16.67
2022-10-20T17:26:32.322Z,16.97
2022-10-20T17:29:00.523Z,18.00
2022-10-20T17:31:27.710Z,15.20
2022-10-20T17:33:54.235Z,17.20
2022-10-20T17:36:20.951Z,17.17
2022-10-20T17:38:47.431Z,24.57
2022-10-20T17:41:15.243Z,14.97
2022-10-20T17:43:41.918Z,10.50
2022-10-20T17:47:00.528Z,14.90
2022-10-20T17:49:30.141Z,20.80
2022-10-20T17:51:56.622Z,14.65
2022-10-20T17:54:24.262Z,17.87
2022-10-20T17:56:50.801Z,20.90
2022-10-20T17:59:17.472Z,15.03
2022-10-20T18:01:46.614Z,15.23
2022-10-20T18:04:14.495Z,20.15
2022-10-20T18:06:42.064Z,15.87
2022-10-20T18:09:11.316Z,17.37
2022-10-20T18:11:39.518Z,17.83
2022-10-20T18:14:06.304Z,12.73
2022-10-20T18:16:34.424Z,19.90
2022-10-20T18:19:01.218Z,14.53
2022-10-20T18:21:28.950Z,15.33
2022-10-20T18:24:04.176Z,17.00
2022-10-20T18:26:32.321Z,19.77
2022-10-20T18:29:04.795Z,19.43
2022-10-20T18:31:34.318Z,19.43
2022-10-20T18:34:04.396Z,14.20
2022-10-20T18:36:33.728Z,17.40
2022-10-20T18:39:00.429Z,15.77
2022-10-20T18:41:28.818Z,15.00
2022-10-20T18:44:00.039Z,18.13
2022-10-20T18:46:27.899Z,17.40
2022-10-20T18:48:54.539Z,20.80
2022-10-20T18:51:32.317Z,12.53
2022-10-20T18:54:04.626Z,14.43
2022-10-20T18:56:31.757Z,15.27
2022-10-20T18:59:03.351Z,15.13
2022-10-20T19:01:32.774Z,13.63
2022-10-20T19:04:00.100Z,15.93
2022-10-20T19:06:35.723Z,19.20
2022-10-20T19:09:06.145Z,16.93
2022-10-20T19:11:34.710Z,12.10
2022-10-20T19:14:01.214Z,19.60
2022-10-20T19:16:30.218Z,15.73
2022-10-20T19:18:58.269Z,12.82
2022-10-20T19:21:25.456Z,15.23
2022-10-20T19:24:01.384Z,18.20
2022-10-20T19:26:42.923Z,15.90
2022-10-20T19:29:12.115Z,14.27
2022-10-20T19:31:45.909Z,16.77
2022-10-20T19:34:22.784Z,17.80
2022-10-20T19:36:49.353Z,16.23
2022-10-20T19:41:51.110Z,14.97
2022-10-20T19:44:17.603Z,16.13
2022-10-20T19:46:46.168Z,14.80
2022-10-20T19:49:13.027Z,12.67
2022-10-20T19:51:39.936Z,16.53
2022-10-20T19:54:07.536Z,15.80
2022-10-20T19:56:34.632Z,18.77
2022-10-20T19:59:06.073Z,16.43
2022-10-20T20:01:38.012Z,19.27
2022-10-20T20:04:05.277Z,15.65
2022-10-20T20:06:33.598Z,19.50
2022-10-20T20:09:03.366Z,13.50
2022-10-20T20:11:30.377Z,17.63
2022-10-20T20:13:59.675Z,16.80
2022-10-20T20:16:26.648Z,16.45
2022-10-20T20:18:53.380Z,16.67
2022-10-20T20:21:23.147Z,13.03
2022-10-20T20:24:00.787Z,16.95
2022-10-20T20:26:30.108Z,23.70
2022-10-20T20:28:57.040Z,14.55
2022-10-20T20:31:25.617Z,12.60
2022-10-20T20:33:52.688Z,20.17
2022-10-20T20:36:19.727Z,16.07
2022-10-20T20:38:46.320Z,15.73
2022-10-20T20:41:15.073Z,19.47
2022-10-20T20:43:41.870Z,14.27
2022-10-20T20:46:12.604Z,19.00
2022-10-20T20:48:39.207Z,17.33
2022-10-20T20:51:06.282Z,21.10
2022-10-20T20:53:35.370Z,14.43
2022-10-20T20:56:21.919Z,19.10
2022-10-20T20:58:55.033Z,13.37
2022-10-20T21:01:24.530Z,10.38
2022-10-20T21:03:55.362Z,13.37
2022-10-20T21:06:28.827Z,14.83
2022-10-20T21:09:01.181Z,19.90
2022-10-20T21:11:27.757Z,19.17
2022-10-20T21:13:55.510Z,16.03
2022-10-20T21:16:25.924Z,14.30
2022-10-20T21:18:54.915Z,18.63
2022-10-20T21:21:26.608Z,13.33
2022-10-20T21:24:01.897Z,20.03
2022-10-20T21:26:29.414Z,16.43
2022-10-20T21:28:58.567Z,14.97
2022-10-20T21:31:26.585Z,14.02
2022-10-20T21:33:56.964Z,12.90
2022-10-20T21:36:26.231Z,11.20
2022-10-20T21:38:53.087Z,16.17
2022-10-20T21:41:20.369Z,14.80
2022-10-20T21:43:52.078Z,13.90
2022-10-20T21:46:38.792Z,16.60
2022-10-20T21:49:12.008Z,14.20
2022-10-20T21:51:40.992Z,23.63
2022-10-20T21:54:11.278Z,15.80
2022-10-20T21:56:39.544Z,13.47
2022-10-20T21:59:06.859Z,14.67
2022-10-20T22:01:33.825Z,15.90
2022-10-20T22:04:00.479Z,12.53
2022-10-20T22:06:28.240Z,14.10
2022-10-20T22:08:57.441Z,17.50
2022-10-20T22:11:27.480Z,13.82
2022-10-20T22:16:23.443Z,12.97
2022-10-20T22:19:14.135Z,17.23
2022-10-20T22:21:45.145Z,16.90
2022-10-20T22:24:12.096Z,15.67
2022-10-20T22:26:39.102Z,18.20
2022-10-20T22:29:06.415Z,21.03
2022-10-20T22:31:32.947Z,13.87
2022-10-20T22:33:59.919Z,15.90
2022-10-20T22:36:26.801Z,16.50
2022-10-20T22:38:56.286Z,16.38
2022-10-20T22:41:25.533Z,14.80
2022-10-20T22:43:52.100Z,11.63
2022-10-20T22:46:18.714Z,16.30
2022-10-20T22:48:45.237Z,12.53
2022-10-20T22:51:11.994Z,15.33
2022-10-20T22:53:38.625Z,10.83
2022-10-20T22:56:10.555Z,14.43
2022-10-20T22:58:38.325Z,13.63
2022-10-20T23:01:14.079Z,11.20
2022-10-20T23:03:41.136Z,13.60
2022-10-20T23:06:13.130Z,14.37
2022-10-20T23:08:45.268Z,13.80
2022-10-20T23:11:12.329Z,15.63
2022-10-20T23:13:38.820Z,9.67
2022-10-20T23:16:05.754Z,13.63
2022-10-20T23:18:32.287Z,11.17
2022-10-20T23:20:59.190Z,16.37
2022-10-20T23:23:25.973Z,12.57
2022-10-20T23:25:52.810Z,13.67
2022-10-20T23:28:19.446Z,12.53
2022-10-20T23:30:47.271Z,15.23
2022-10-20T23:33:13.745Z,10.03
2022-10-20T23:35:40.368Z,10.53
2022-10-20T23:38:08.359Z,17.90
2022-10-20T23:40:35.282Z,9.17
2022-10-20T23:43:01.760Z,14.43
2022-10-20T23:45:28.304Z,12.63
2022-10-20T23:47:55.080Z,12.57
2022-10-20T23:50:21.730Z,12.57
2022-10-20T23:52:48.195Z,12.53
2022-10-20T23:55:15.682Z,14.40
2022-10-20T23:57:42.363Z,12.97
